Time;durP1;ratioP1;P1;durP2;ratioP2;P2;SDS_P1;SDS_P2;PMS_P1;PMS_P2;Temp;Humidity;BMP_temperature;BMP_pressure;BME280_temperature;BME280_humidity;BME280_pressure;Samples;Min_cycle;Max_cycle;Signal;HPM_P1;HPM_P2
2022/01/13 00:01:31;;;;;;;383.52;46.03;;;5.40;99.90;;;;;;6268297;22;20267;-96
2022/01/13 00:03:58;;;;;;;318.55;42.45;;;5.40;99.90;;;;;;6276624;22;20011;-96
2022/01/13 00:06:24;;;;;;;359.52;43.83;;;5.40;99.90;;;;;;6278619;22;20061;-96
2022/01/13 00:08:49;;;;;;;334.95;46.88;;;5.40;99.90;;;;;;6272070;22;20397;-96
2022/01/13 00:11:15;;;;;;;168.80;34.55;;;5.40;99.90;;;;;;6276725;22;20019;-96
2022/01/13 00:16:40;;;;;;;267.23;36.97;;;5.30;99.90;;;;;;6232922;23;20055;-96
2022/01/13 00:21:38;;;;;;;306.63;40.72;;;5.40;99.90;;;;;;6229198;23;20020;-96
2022/01/13 00:24:05;;;;;;;177.75;33.40;;;5.30;99.90;;;;;;6230708;23;20016;-96
2022/01/13 00:26:33;;;;;;;174.98;33.00;;;5.40;99.90;;;;;;6205397;23;20144;-96
2022/01/13 00:29:02;;;;;;;211.45;32.05;;;5.30;99.90;;;;;;6230546;23;20039;-96
2022/01/13 00:31:40;;;;;;;173.32;27.88;;;5.30;99.90;;;;;;6203680;23;20016;-96
2022/01/13 00:34:07;;;;;;;196.38;36.55;;;5.30;99.90;;;;;;6202102;23;20023;-96
2022/01/13 00:36:38;;;;;;;167.43;32.53;;;5.30;99.90;;;;;;6207320;23;20012;-96
2022/01/13 00:39:06;;;;;;;186.20;32.15;;;5.30;99.90;;;;;;6229689;23;20062;-96
2022/01/13 00:41:31;;;;;;;167.65;32.83;;;5.30;99.90;;;;;;6204949;23;20018;-96
2022/01/13 00:43:58;;;;;;;140.95;29.35;;;5.40;99.90;;;;;;6221543;23;20103;-95
2022/01/13 00:46:29;;;;;;;203.57;32.20;;;5.30;99.90;;;;;;6200067;23;20020;-96
2022/01/13 00:48:58;;;;;;;236.25;34.85;;;5.30;99.90;;;;;;6201544;23;20016;-96
2022/01/13 00:51:25;;;;;;;219.02;32.50;;;5.30;99.90;;;;;;6202276;23;20027;-96
2022/01/13 00:53:51;;;;;;;233.35;36.25;;;5.40;99.90;;;;;;6251667;22;20058;-96
2022/01/13 00:56:17;;;;;;;237.30;34.38;;;5.30;99.90;;;;;;6260968;22;20083;-96
2022/01/13 00:58:44;;;;;;;234.30;36.08;;;5.30;99.90;;;;;;6266916;22;20015;-96
2022/01/13 01:01:11;;;;;;;274.00;41.78;;;5.30;99.90;;;;;;6265594;22;20011;-96
2022/01/13 01:03:37;;;;;;;281.35;38.75;;;5.30;99.90;;;;;;6262429;22;20026;-96
2022/01/13 01:06:04;;;;;;;241.73;39.15;;;5.30;99.90;;;;;;6298583;22;20020;-96
2022/01/13 01:08:32;;;;;;;204.73;36.97;;;5.30;99.90;;;;;;6264115;22;20046;-96
2022/01/13 01:11:01;;;;;;;206.18;35.30;;;5.30;99.90;;;;;;6286499;22;20011;-96
2022/01/13 01:13:29;;;;;;;172.68;31.70;;;5.30;99.90;;;;;;6267251;22;20051;-96
2022/01/13 01:15:58;;;;;;;183.30;34.72;;;5.10;99.90;;;;;;6287525;22;20038;-96
2022/01/13 01:18:34;;;;;;;221.80;35.95;;;5.30;99.90;;;;;;6292782;22;20327;-96
2022/01/13 01:23:45;;;;;;;203.65;36.90;;;5.20;99.90;;;;;;6281352;22;20448;-95
2022/01/13 01:26:35;;;;;;;239.25;38.40;;;5.30;99.90;;;;;;6255313;22;20471;-96
2022/01/13 01:29:16;;;;;;;244.20;34.10;;;5.30;99.90;;;;;;6262248;22;20019;-96
2022/01/13 01:31:48;;;;;;;182.50;33.40;;;5.30;99.90;;;;;;6262639;22;20015;-96
2022/01/13 01:36:54;;;;;;;205.73;31.30;;;5.30;99.90;;;;;;6281222;22;20022;-96
2022/01/13 01:39:20;;;;;;;145.18;32.80;;;5.30;99.90;;;;;;6259994;22;20042;-96
2022/01/13 01:41:48;;;;;;;205.13;31.55;;;5.30;99.90;;;;;;6256928;22;20037;-96
2022/01/13 01:44:30;;;;;;;219.80;32.80;;;5.30;99.90;;;;;;6264436;22;20018;-96
2022/01/13 01:46:58;;;;;;;236.93;37.75;;;5.30;99.90;;;;;;6260242;22;20019;-96
2022/01/13 01:49:25;;;;;;;228.82;35.55;;;5.30;99.90;;;;;;6268824;22;20011;-96
2022/01/13 01:52:00;;;;;;;179.73;30.73;;;5.30;99.90;;;;;;6259253;22;20015;-96
2022/01/13 01:54:26;;;;;;;;;;;5.30;99.90;;;;;;6266929;22;20061;-96
2022/01/13 01:56:52;;;;;;;273.27;35.20;;;5.30;99.90;;;;;;6286729;22;19915;-96
2022/01/13 01:59:24;;;;;;;313.00;37.90;;;5.30;99.90;;;;;;6284354;22;20107;-96
2022/01/13 02:01:52;;;;;;;245.10;33.78;;;5.30;99.90;;;;;;6282520;22;20025;-96
2022/01/13 02:04:19;;;;;;;244.23;39.20;;;5.30;99.90;;;;;;6261874;22;20013;-96
2022/01/13 02:06:47;;;;;;;157.32;31.23;;;5.30;99.90;;;;;;6283940;22;20059;-96
2022/01/13 02:09:17;;;;;;;254.98;41.00;;;5.30;99.90;;;;;;6254277;22;20022;-96
2022/01/13 02:11:45;;;;;;;254.70;34.95;;;5.30;99.90;;;;;;6259187;22;20015;-96
2022/01/13 02:17:09;;;;;;;219.98;36.80;;;5.30;99.90;;;;;;6293730;22;20055;-96
2022/01/13 02:19:37;;;;;;;192.88;36.13;;;5.30;99.90;;;;;;6291360;22;20045;-96
2022/01/13 02:22:03;;;;;;;209.00;38.25;;;5.30;99.90;;;;;;6270860;22;20015;-96
2022/01/13 02:24:29;;;;;;;260.60;40.13;;;5.40;99.90;;;;;;6261352;22;20011;-96
2022/01/13 02:26:55;;;;;;;232.13;36.60;;;5.40;99.90;;;;;;6266489;22;20015;-96
2022/01/13 02:29:21;;;;;;;314.92;44.30;;;5.30;99.90;;;;;;6256661;22;20069;-96
2022/01/13 02:31:47;;;;;;;215.93;37.55;;;5.40;99.90;;;;;;6289834;22;20027;-96
2022/01/13 02:34:12;;;;;;;273.02;41.60;;;5.40;99.90;;;;;;6256569;22;20018;-96
2022/01/13 02:36:40;;;;;;;216.20;38.88;;;5.40;99.90;;;;;;6285561;22;20422;-96
2022/01/13 02:39:07;;;;;;;261.60;39.40;;;5.40;99.90;;;;;;6290092;22;20019;-96
2022/01/13 02:41:32;;;;;;;278.90;42.15;;;5.40;99.90;;;;;;6266772;22;20041;-96
2022/01/13 02:43:59;;;;;;;234.38;36.28;;;5.40;99.90;;;;;;6258300;22;20120;-96
2022/01/13 02:46:33;;;;;;;242.55;40.45;;;5.40;99.90;;;;;;6259434;22;20505;-96
2022/01/13 02:49:00;;;;;;;183.90;34.05;;;5.40;99.90;;;;;;6269176;22;20018;-95
2022/01/13 02:51:27;;;;;;;153.18;34.20;;;5.30;99.90;;;;;;6270944;22;20019;-96
2022/01/13 02:53:53;;;;;;;162.38;31.08;;;5.30;99.90;;;;;;6304743;22;19999;-95
2022/01/13 02:56:18;;;;;;;143.07;29.95;;;5.30;99.90;;;;;;6271276;22;20051;-96
2022/01/13 02:58:45;;;;;;;130.70;28.38;;;5.30;99.90;;;;;;6280321;22;20034;-96
2022/01/13 03:01:11;;;;;;;213.05;35.95;;;5.30;99.90;;;;;;6273136;22;20015;-96
2022/01/13 03:03:38;;;;;;;213.25;38.05;;;5.30;99.90;;;;;;6267676;22;20011;-96
2022/01/13 03:06:10;;;;;;;141.65;31.38;;;5.30;99.90;;;;;;6281963;22;20014;-96
2022/01/13 03:08:37;;;;;;;204.55;33.00;;;5.30;99.90;;;;;;6253658;22;20022;-96
2022/01/13 03:11:03;;;;;;;159.80;35.88;;;5.30;99.90;;;;;;6279873;22;20022;-95
2022/01/13 03:13:30;;;;;;;185.02;32.95;;;5.30;99.90;;;;;;6259420;22;20086;-96
2022/01/13 03:15:56;;;;;;;187.52;33.30;;;5.30;99.90;;;;;;6283174;22;20064;-96
2022/01/13 03:18:21;;;;;;;229.52;42.00;;;5.30;99.90;;;;;;6256993;22;20317;-95
2022/01/13 03:20:47;;;;;;;176.68;38.38;;;5.30;99.90;;;;;;6280662;22;20012;-95
2022/01/13 03:23:17;;;;;;;215.63;36.80;;;5.40;99.90;;;;;;6252707;22;20019;-96
2022/01/13 03:25:45;;;;;;;238.77;37.63;;;5.30;99.90;;;;;;6252403;22;20387;-95
2022/01/13 03:28:15;;;;;;;247.48;38.03;;;5.40;99.90;;;;;;6253378;22;20015;-96
2022/01/13 03:30:41;;;;;;;165.27;33.25;;;5.40;99.90;;;;;;6277838;22;20086;-95
2022/01/13 03:33:08;;;;;;;126.90;30.48;;;5.40;99.90;;;;;;6253398;22;20019;-96
2022/01/13 03:35:36;;;;;;;182.45;38.70;;;5.30;99.90;;;;;;6254458;22;20022;-96
2022/01/13 03:38:02;;;;;;;146.52;30.90;;;5.40;99.90;;;;;;6259088;22;20340;-95
2022/01/13 03:40:28;;;;;;;175.77;34.80;;;5.40;99.90;;;;;;6280576;22;20008;-96
2022/01/13 03:42:54;;;;;;;147.85;35.90;;;5.40;99.90;;;;;;6261152;22;20030;-96
2022/01/13 03:45:21;;;;;;;164.23;30.88;;;5.40;99.90;;;;;;6264932;22;20343;-96
2022/01/13 03:47:46;;;;;;;211.18;38.80;;;5.30;99.90;;;;;;6287933;22;20190;-95
2022/01/13 03:50:13;;;;;;;209.00;36.20;;;5.30;99.90;;;;;;6253868;22;20051;-96
2022/01/13 03:53:01;;;;;;;184.75;39.05;;;5.30;99.90;;;;;;6277908;22;20041;-95
2022/01/13 03:55:36;;;;;;;123.35;31.33;;;5.30;99.90;;;;;;6252921;22;20128;-96
2022/01/13 03:58:29;;;;;;;180.35;33.47;;;5.40;99.90;;;;;;6254692;22;20019;-96
2022/01/13 04:01:23;;;;;;;133.52;30.13;;;5.40;99.90;;;;;;6252597;22;20019;-96
2022/01/13 04:03:48;;;;;;;262.20;41.17;;;5.40;99.90;;;;;;6252483;22;20023;-96
2022/01/13 04:06:14;;;;;;;208.68;38.60;;;5.40;99.90;;;;;;6253556;22;20011;-95
2022/01/13 04:08:40;;;;;;;146.25;33.08;;;5.40;99.90;;;;;;6251753;22;20050;-96
2022/01/13 04:11:06;;;;;;;206.25;34.78;;;5.40;99.90;;;;;;6254016;22;20018;-96
2022/01/13 04:13:50;;;;;;;234.93;38.90;;;5.40;99.90;;;;;;6278403;22;20016;-96
2022/01/13 04:16:27;;;;;;;160.00;33.38;;;5.30;99.90;;;;;;6255404;22;20019;-96
2022/01/13 04:18:57;;;;;;;203.75;36.22;;;5.30;99.90;;;;;;6280777;22;20068;-96
2022/01/13 04:21:23;;;;;;;251.85;40.00;;;5.30;99.90;;;;;;6255389;22;20018;-96
2022/01/13 04:23:49;;;;;;;214.73;37.72;;;5.30;99.90;;;;;;6280165;22;20011;-95
2022/01/13 04:26:19;;;;;;;237.75;34.03;;;5.30;99.90;;;;;;6254225;22;20015;-96
2022/01/13 04:28:46;;;;;;;147.73;33.92;;;5.30;99.90;;;;;;6255654;22;20019;-95
2022/01/13 04:31:12;;;;;;;150.35;33.40;;;5.30;99.90;;;;;;6253575;22;20051;-96
2022/01/13 04:33:38;;;;;;;172.60;29.17;;;5.30;99.90;;;;;;6252908;22;20016;-96
2022/01/13 04:36:06;;;;;;;140.80;29.30;;;5.30;99.90;;;;;;6256552;22;20467;-96
2022/01/13 04:38:32;;;;;;;147.05;30.75;;;5.30;99.90;;;;;;6252600;22;20015;-96
2022/01/13 04:41:00;;;;;;;263.02;41.13;;;5.20;99.90;;;;;;6253228;22;20019;-96
2022/01/13 04:43:29;;;;;;;215.13;37.40;;;5.30;99.90;;;;;;6255087;22;20019;-96
2022/01/13 04:45:55;;;;;;;166.25;30.85;;;5.30;99.90;;;;;;6262635;22;20329;-96
2022/01/13 04:48:21;;;;;;;252.30;34.75;;;5.20;99.90;;;;;;6253539;22;20075;-96
2022/01/13 04:50:46;;;;;;;166.18;34.17;;;5.20;99.90;;;;;;6277400;22;20047;-96
2022/01/13 04:53:12;;;;;;;173.88;32.55;;;5.20;99.90;;;;;;6279061;22;20022;-96
2022/01/13 04:55:39;;;;;;;186.07;35.30;;;5.20;99.90;;;;;;6283482;22;20062;-96
2022/01/13 04:58:06;;;;;;;182.02;31.52;;;5.20;99.90;;;;;;6255231;22;20317;-96
2022/01/13 05:00:33;;;;;;;192.32;30.10;;;5.20;99.90;;;;;;6284655;22;20049;-96
2022/01/13 05:02:59;;;;;;;128.43;29.65;;;5.20;99.90;;;;;;6260235;22;20015;-95
2022/01/13 05:05:25;;;;;;;188.65;35.65;;;5.20;99.90;;;;;;6260741;22;20015;-96
2022/01/13 05:07:51;;;;;;;206.38;34.15;;;5.20;99.90;;;;;;6259318;22;20034;-96
2022/01/13 05:10:17;;;;;;;165.70;28.95;;;5.20;99.90;;;;;;6261785;22;20023;-96
2022/01/13 05:12:48;;;;;;;147.80;33.08;;;5.10;99.90;;;;;;6257640;22;20007;-96
2022/01/13 05:15:18;;;;;;;152.88;30.20;;;5.20;99.90;;;;;;6262622;22;20026;-96
2022/01/13 05:20:39;;;;;;;132.30;31.23;;;5.10;99.90;;;;;;6289671;22;20050;-96
2022/01/13 05:23:06;;;;;;;171.27;32.28;;;5.10;99.90;;;;;;6297219;22;20041;-96
2022/01/13 05:25:31;;;;;;;136.75;30.38;;;5.10;99.90;;;;;;6271145;22;20017;-96
2022/01/13 05:27:57;;;;;;;120.88;27.35;;;5.20;99.90;;;;;;6290861;22;20050;-96
2022/01/13 05:30:22;;;;;;;187.98;34.70;;;5.10;99.90;;;;;;6295035;22;20006;-96
2022/01/13 05:32:48;;;;;;;163.32;32.80;;;5.10;99.90;;;;;;6266473;22;20045;-96
2022/01/13 05:35:17;;;;;;;114.90;31.30;;;5.20;99.90;;;;;;6274984;22;20020;-96
2022/01/13 05:37:43;;;;;;;130.50;27.52;;;5.10;99.90;;;;;;6279856;22;20061;-96
2022/01/13 05:40:11;;;;;;;172.13;32.45;;;5.10;99.90;;;;;;6278058;22;20011;-96
2022/01/13 05:42:37;;;;;;;179.95;33.15;;;5.10;99.90;;;;;;6278842;22;20025;-96
2022/01/13 05:45:03;;;;;;;176.55;33.60;;;5.10;99.90;;;;;;6268305;22;20015;-96
2022/01/13 05:47:29;;;;;;;167.88;32.00;;;5.10;99.90;;;;;;6272027;22;20026;-96
2022/01/13 05:49:54;;;;;;;115.63;25.65;;;5.10;99.90;;;;;;6274307;22;20008;-96
2022/01/13 05:52:20;;;;;;;178.60;34.55;;;5.10;99.90;;;;;;6263439;22;20019;-96
2022/01/13 05:54:45;;;;;;;174.48;30.67;;;5.00;99.90;;;;;;6269541;22;20023;-96
2022/01/13 05:57:11;;;;;;;143.68;27.35;;;5.10;99.90;;;;;;6269236;22;20026;-93
2022/01/13 05:59:37;;;;;;;159.57;30.50;;;5.00;99.90;;;;;;6265956;22;20016;-96
2022/01/13 06:02:03;;;;;;;114.60;28.10;;;5.00;99.90;;;;;;6259780;22;20015;-96
2022/01/13 06:04:29;;;;;;;172.63;29.67;;;5.00;99.90;;;;;;6261010;22;20015;-95
2022/01/13 06:06:54;;;;;;;189.32;32.65;;;5.00;99.90;;;;;;6258220;22;20015;-96
2022/01/13 06:09:20;;;;;;;179.55;29.85;;;5.00;99.90;;;;;;6258389;22;20019;-96
2022/01/13 06:14:32;;;;;;;159.65;31.35;;;5.00;99.90;;;;;;6182214;22;20029;-96
2022/01/13 06:16:58;;;;;;;110.32;27.25;;;5.00;99.90;;;;;;6266167;22;20015;-96
2022/01/13 06:19:26;;;;;;;184.25;32.83;;;5.00;99.90;;;;;;6299722;22;20016;-96
2022/01/13 06:21:51;;;;;;;177.00;33.03;;;5.00;99.90;;;;;;6265213;22;20019;-95
2022/01/13 06:24:18;;;;;;;158.30;28.35;;;5.00;99.90;;;;;;6294247;22;20046;-96
2022/01/13 06:26:46;;;;;;;168.75;29.38;;;5.10;99.90;;;;;;6286682;22;20019;-96
2022/01/13 06:29:12;;;;;;;194.48;34.72;;;5.00;99.90;;;;;;6274264;22;20107;-96
2022/01/13 06:34:13;;;;;;;136.77;27.20;;;5.10;99.90;;;;;;6294598;22;20019;-96
2022/01/13 06:36:39;;;;;;;152.77;29.10;;;5.10;99.90;;;;;;6190709;22;20686;-96
2022/01/13 06:39:05;;;;;;;194.18;32.30;;;5.10;99.90;;;;;;6241842;22;20027;-96
2022/01/13 06:41:41;;;;;;;;;;;;;;;;;;;;;
2022/01/13 06:44:09;;;;;;;218.50;33.67;;;5.10;99.90;;;;;;6190887;22;20033;31
2022/01/13 06:49:43;;;;;;;205.25;33.05;;;5.00;99.90;;;;;;6303242;22;20023;-96
2022/01/13 06:52:38;;;;;;;202.27;32.33;;;5.10;99.90;;;;;;6261557;22;20014;-96
2022/01/13 06:55:05;;;;;;;118.00;25.05;;;5.10;99.90;;;;;;6207911;22;20021;-96
2022/01/13 07:03:13;;;;;;;142.65;26.67;;;5.00;99.90;;;;;;6316227;22;20019;-96
2022/01/13 07:05:39;;;;;;;125.85;26.77;;;5.00;99.90;;;;;;6300893;22;20003;-96
2022/01/13 07:10:48;;;;;;;151.60;27.65;;;5.00;99.90;;;;;;6285126;22;20685;-96
2022/01/13 07:13:14;;;;;;;121.28;26.08;;;5.10;99.90;;;;;;6278373;22;20037;-96
2022/01/13 07:15:43;;;;;;;110.97;25.17;;;5.00;99.90;;;;;;6281524;22;20031;-96
2022/01/13 07:18:10;;;;;;;135.65;30.25;;;5.00;99.90;;;;;;6286581;22;20010;-96
2022/01/13 07:20:36;;;;;;;164.30;34.75;;;5.00;99.90;;;;;;6262037;22;20023;-96
2022/01/13 07:23:01;;;;;;;171.68;34.53;;;5.00;99.90;;;;;;6256153;22;20030;-93
2022/01/13 07:25:27;;;;;;;140.95;27.92;;;5.00;99.90;;;;;;6253294;22;20016;-96
2022/01/13 07:27:53;;;;;;;162.80;34.95;;;5.00;99.90;;;;;;6251881;22;20015;-94
2022/01/13 07:30:18;;;;;;;169.63;30.15;;;5.00;99.90;;;;;;6277793;22;20011;-96
2022/01/13 07:32:44;;;;;;;139.48;31.50;;;5.00;99.90;;;;;;6277575;22;20069;-96
2022/01/13 07:35:10;;;;;;;157.05;32.30;;;5.00;99.90;;;;;;6252420;22;20015;-95
2022/01/13 07:37:36;;;;;;;140.80;28.38;;;5.10;99.90;;;;;;6277010;22;20023;-95
2022/01/13 07:40:03;;;;;;;149.60;31.30;;;5.00;99.90;;;;;;6286848;22;20030;-96
2022/01/13 07:42:29;;;;;;;121.60;28.20;;;5.10;99.90;;;;;;6216161;22;20022;-96
2022/01/13 07:44:54;;;;;;;174.48;34.20;;;5.00;99.90;;;;;;6217672;23;20447;-95
2022/01/13 07:47:20;;;;;;;176.27;33.97;;;5.10;99.90;;;;;;6243627;23;20016;-96
2022/01/13 07:49:46;;;;;;;155.93;30.23;;;5.10;99.90;;;;;;6217762;23;20275;-96
2022/01/13 07:52:11;;;;;;;129.98;29.55;;;5.10;99.90;;;;;;6257073;23;20054;-96
2022/01/13 07:54:37;;;;;;;160.38;32.10;;;5.10;99.90;;;;;;6226428;23;20020;-96
2022/01/13 07:57:03;;;;;;;133.38;32.00;;;5.10;99.90;;;;;;6253573;23;20016;-94
2022/01/13 07:59:29;;;;;;;163.35;30.17;;;5.10;99.90;;;;;;6221237;23;20009;-96
2022/01/13 08:01:58;;;;;;;161.02;33.45;;;5.10;99.90;;;;;;6226316;23;20027;-96
2022/01/13 08:04:24;;;;;;;133.02;28.55;;;5.10;99.90;;;;;;6234574;23;20016;-96
2022/01/13 08:06:50;;;;;;;175.38;32.70;;;5.10;99.90;;;;;;6263678;22;20023;-96
2022/01/13 08:09:16;;;;;;;137.00;28.52;;;5.10;99.90;;;;;;6220481;22;20006;-96
2022/01/13 08:11:42;;;;;;;126.75;32.63;;;5.10;99.90;;;;;;6241993;22;20004;-96
2022/01/13 08:14:07;;;;;;;143.15;28.73;;;5.10;99.90;;;;;;6274808;22;20019;-96
2022/01/13 08:16:35;;;;;;;158.95;34.15;;;5.10;99.90;;;;;;6258367;22;20003;-96
2022/01/13 08:21:46;;;;;;;151.73;30.00;;;5.20;99.90;;;;;;6283377;22;20143;-96
2022/01/13 08:24:12;;;;;;;112.20;30.58;;;5.20;99.90;;;;;;6283307;22;20515;-96
2022/01/13 08:26:38;;;;;;;106.80;26.98;;;5.20;99.90;;;;;;6270927;22;20007;-95
2022/01/13 08:29:04;;;;;;;145.77;32.72;;;5.20;99.90;;;;;;6299936;22;20015;-94
2022/01/13 08:31:30;;;;;;;181.77;36.80;;;5.20;99.90;;;;;;6280275;22;20094;-95
2022/01/13 08:33:56;;;;;;;144.18;29.73;;;5.30;99.90;;;;;;6303086;22;19995;-96
2022/01/13 08:36:21;;;;;;;161.13;32.25;;;5.30;99.90;;;;;;6306783;22;20029;-96
2022/01/13 08:38:49;;;;;;;137.38;33.05;;;5.30;99.90;;;;;;6265337;22;20054;-96
2022/01/13 08:41:15;;;;;;;162.20;31.85;;;5.30;99.90;;;;;;6266336;22;20015;-96
2022/01/13 08:43:40;;;;;;;107.22;30.75;;;5.30;99.90;;;;;;6258302;22;20242;-96
2022/01/13 08:46:06;;;;;;;138.45;34.03;;;5.20;99.90;;;;;;6259664;22;20026;-96
2022/01/13 08:48:35;;;;;;;122.20;29.17;;;5.30;99.90;;;;;;6259442;22;20018;-96
2022/01/13 08:51:01;;;;;;;147.27;34.30;;;5.30;99.90;;;;;;6292056;22;20015;-96
2022/01/13 08:53:27;;;;;;;102.20;31.17;;;5.30;99.90;;;;;;6275025;22;20026;-96
2022/01/13 08:55:55;;;;;;;143.77;30.33;;;5.50;99.90;;;;;;6284288;22;20102;-95
2022/01/13 08:58:26;;;;;;;137.73;30.10;;;5.40;99.90;;;;;;6266657;22;20022;-95
2022/01/13 09:00:55;;;;;;;99.03;27.60;;;5.40;99.90;;;;;;6261056;22;20015;-96
2022/01/13 09:03:21;;;;;;;137.10;30.52;;;5.40;99.90;;;;;;6300551;22;20045;-96
2022/01/13 09:05:47;;;;;;;110.15;29.83;;;5.40;99.90;;;;;;6267051;22;20019;-96
2022/01/13 09:10:56;;;;;;;116.60;32.35;;;5.40;99.90;;;;;;6204474;23;20089;-96
2022/01/13 09:13:23;;;;;;;115.10;26.85;;;5.50;99.90;;;;;;6180038;23;20029;-97
2022/01/13 09:15:56;;;;;;;92.57;29.08;;;5.50;99.90;;;;;;6159640;23;20066;-96
2022/01/13 09:21:07;;;;;;;98.22;29.45;;;5.50;99.90;;;;;;6282956;22;20025;-94
2022/01/13 09:23:36;;;;;;;151.10;35.78;;;5.50;99.90;;;;;;6289521;22;20023;-96
2022/01/13 09:26:03;;;;;;;106.88;28.52;;;5.60;99.90;;;;;;6276653;22;20015;-96
2022/01/13 09:28:28;;;;;;;100.38;30.38;;;5.70;99.90;;;;;;6271515;22;20084;-96
2022/01/13 09:30:54;;;;;;;123.93;30.33;;;5.70;99.90;;;;;;6278461;22;20019;-96
2022/01/13 09:33:21;;;;;;;131.02;34.40;;;5.60;99.90;;;;;;6297307;22;20022;-96
2022/01/13 09:35:47;;;;;;;99.72;28.95;;;5.60;99.90;;;;;;6272669;22;20023;-96
2022/01/13 09:38:13;;;;;;;118.28;34.13;;;5.70;99.90;;;;;;6280366;22;20026;-96
2022/01/13 09:40:45;;;;;;;122.15;34.80;;;5.70;99.90;;;;;;6306262;22;20015;-96
2022/01/13 09:43:11;;;;;;;117.07;34.33;;;5.70;99.90;;;;;;6267590;22;20043;-96
2022/01/13 09:45:41;;;;;;;149.35;38.00;;;5.80;99.90;;;;;;6263653;22;20015;-96
2022/01/13 09:48:06;;;;;;;118.10;30.85;;;5.80;99.90;;;;;;6295211;22;20015;-96
2022/01/13 09:50:32;;;;;;;143.82;38.20;;;5.80;99.90;;;;;;6266046;22;20046;-96
2022/01/13 09:52:58;;;;;;;151.32;38.17;;;5.90;99.90;;;;;;6288364;22;20023;-96
2022/01/13 09:55:24;;;;;;;147.85;34.80;;;5.90;99.90;;;;;;6285982;22;20019;-95
2022/01/13 09:57:52;;;;;;;130.95;35.13;;;5.90;99.90;;;;;;6259590;22;20015;-96
2022/01/13 10:00:25;;;;;;;172.50;39.72;;;6.00;99.90;;;;;;6268600;22;20070;-96
2022/01/13 10:02:51;;;;;;;153.82;38.42;;;5.90;99.90;;;;;;6291521;22;20167;-96
2022/01/13 10:05:18;;;;;;;151.18;37.83;;;6.00;99.90;;;;;;6285017;22;20019;-96
2022/01/13 10:07:46;;;;;;;146.00;34.53;;;6.00;99.90;;;;;;6260640;22;20019;-96
2022/01/13 10:12:59;;;;;;;127.38;37.10;;;6.10;99.90;;;;;;6244522;22;20023;-96
2022/01/13 10:18:41;;;;;;;131.43;34.80;;;6.10;99.90;;;;;;6252363;22;20047;-96
2022/01/13 10:21:10;;;;;;;138.95;34.20;;;6.00;99.90;;;;;;6271856;22;20042;-96
2022/01/13 10:23:35;;;;;;;143.40;37.38;;;6.10;99.90;;;;;;6292789;22;20019;-96
2022/01/13 10:26:12;;;;;;;139.52;37.10;;;6.10;99.90;;;;;;6259875;22;20015;-95
2022/01/13 10:28:39;;;;;;;144.40;37.13;;;6.10;99.90;;;;;;6300861;22;20023;-96
2022/01/13 10:31:04;;;;;;;160.73;39.53;;;6.20;99.90;;;;;;6268609;22;20019;-96
2022/01/13 10:33:38;;;;;;;151.30;38.08;;;6.20;99.90;;;;;;6266921;22;20098;-96
2022/01/13 10:36:12;;;;;;;119.53;31.92;;;6.20;99.90;;;;;;6250429;22;20076;-94
2022/01/13 10:38:52;;;;;;;117.55;35.42;;;6.20;99.90;;;;;;6262709;22;20316;-95
2022/01/13 10:41:31;;;;;;;126.35;35.75;;;6.20;99.90;;;;;;6234638;22;20031;-96
2022/01/13 10:44:16;;;;;;;120.72;35.55;;;6.30;99.90;;;;;;6232644;22;20023;-96
2022/01/13 10:47:02;;;;;;;154.25;37.80;;;6.30;99.90;;;;;;6231733;22;20030;-96
2022/01/13 10:49:34;;;;;;;122.65;33.10;;;6.20;99.90;;;;;;6228387;22;20020;-96
2022/01/13 10:52:26;;;;;;;142.15;37.63;;;6.30;99.90;;;;;;6235618;22;20058;-95
2022/01/13 11:08:44;;;;;;;97.57;27.17;;;6.30;99.90;;;;;;6326127;22;1341687;-95
2022/01/13 11:14:21;;;;;;;99.20;28.42;;;6.30;99.90;;;;;;6289835;22;20027;-96
2022/01/13 11:16:47;;;;;;;124.78;33.97;;;6.30;99.90;;;;;;6312706;22;20027;-93
2022/01/13 11:19:15;;;;;;;103.95;31.25;;;6.40;99.90;;;;;;6315061;22;20019;-96
2022/01/13 11:21:41;;;;;;;103.10;28.08;;;6.40;99.90;;;;;;6295218;22;20015;-94
2022/01/13 11:24:07;;;;;;;131.55;35.10;;;6.30;99.90;;;;;;6296860;22;20015;-94
2022/01/13 11:26:34;;;;;;;107.05;31.80;;;6.40;99.90;;;;;;6317475;22;20038;-91
2022/01/13 11:29:00;;;;;;;115.32;31.85;;;6.40;99.90;;;;;;6319499;22;20019;-93
2022/01/13 11:31:26;;;;;;;105.13;32.17;;;6.40;99.90;;;;;;6319364;22;20022;-94
2022/01/13 11:33:52;;;;;;;113.68;30.88;;;6.30;99.90;;;;;;6356680;22;20054;-95
2022/01/13 11:36:19;;;;;;;112.45;33.45;;;6.30;99.90;;;;;;6315334;22;20007;-96
2022/01/13 11:38:57;;;;;;;105.30;32.95;;;6.40;99.90;;;;;;6327713;22;20019;-93
2022/01/13 11:41:23;;;;;;;95.00;30.67;;;6.30;99.90;;;;;;6336056;22;20050;-95
2022/01/13 11:43:50;;;;;;;101.57;32.25;;;6.30;99.90;;;;;;6314061;22;20161;-94
2022/01/13 11:46:24;;;;;;;85.65;31.55;;;6.40;99.90;;;;;;6299202;22;20011;-96
2022/01/13 11:49:09;;;;;;;102.93;31.83;;;6.30;99.90;;;;;;6301446;22;20011;-94
2022/01/13 11:51:55;;;;;;;109.15;33.15;;;6.30;99.90;;;;;;6314796;22;20011;-95
2022/01/13 11:54:33;;;;;;;125.85;33.97;;;6.40;99.90;;;;;;6288161;22;20072;-93
2022/01/13 11:57:21;;;;;;;102.20;32.75;;;6.40;99.90;;;;;;6287497;22;20106;-91
2022/01/13 11:59:56;;;;;;;127.40;36.25;;;6.40;99.90;;;;;;6286255;22;20448;-94
2022/01/13 12:02:34;;;;;;;117.30;33.95;;;6.40;99.90;;;;;;6314442;22;20110;-95
2022/01/13 12:05:05;;;;;;;117.10;31.52;;;6.30;99.90;;;;;;6314420;22;20487;-94
2022/01/13 12:07:35;;;;;;;109.75;34.95;;;6.40;99.90;;;;;;6310033;22;20609;-92
2022/01/13 12:10:00;;;;;;;101.43;32.97;;;6.40;99.90;;;;;;6277388;22;20026;-95
2022/01/13 12:12:34;;;;;;;116.07;35.20;;;6.40;99.90;;;;;;6279681;22;20336;-91
2022/01/13 12:15:17;;;;;;;132.30;36.45;;;6.40;99.90;;;;;;6304494;22;20020;-89
2022/01/13 12:17:49;;;;;;;123.05;33.80;;;6.30;99.90;;;;;;6280366;22;20025;-94
2022/01/13 12:20:40;;;;;;;123.68;36.58;;;6.40;99.90;;;;;;6286025;22;20015;-93
2022/01/13 12:23:26;;;;;;;109.63;34.97;;;6.50;99.90;;;;;;6282469;22;20054;-92
2022/01/13 12:25:52;;;;;;;105.07;33.10;;;6.40;99.90;;;;;;6304106;22;20090;-92
2022/01/13 12:28:18;;;;;;;102.20;31.50;;;6.40;99.90;;;;;;6330171;22;20061;-92
2022/01/13 12:30:44;;;;;;;104.47;34.10;;;6.40;99.90;;;;;;6303604;22;20098;-92
2022/01/13 12:33:11;;;;;;;114.20;32.03;;;6.40;99.90;;;;;;6278477;22;20019;-93
2022/01/13 12:35:37;;;;;;;108.10;34.38;;;6.40;99.90;;;;;;6276714;22;20076;-92
2022/01/13 12:38:20;;;;;;;133.27;34.80;;;6.40;99.90;;;;;;6277862;22;20054;-92
2022/01/13 12:40:54;;;;;;;129.02;35.40;;;6.40;99.90;;;;;;6278601;22;20374;-93
2022/01/13 12:46:12;;;;;;;114.43;34.90;;;6.40;99.90;;;;;;6306948;22;20326;-94
2022/01/13 12:48:40;;;;;;;120.68;33.80;;;6.40;99.90;;;;;;6304855;22;20069;-95
2022/01/13 12:51:06;;;;;;;125.47;35.75;;;6.40;99.90;;;;;;6308227;22;20000;-95
2022/01/13 12:53:35;;;;;;;132.98;35.97;;;6.40;99.90;;;;;;6287143;22;20026;-95
2022/01/13 12:56:08;;;;;;;132.60;37.65;;;6.40;99.90;;;;;;6286638;22;20082;-92
2022/01/13 12:58:40;;;;;;;131.68;34.63;;;6.40;99.90;;;;;;6285897;22;20015;-95
2022/01/13 13:01:11;;;;;;;135.05;38.60;;;6.40;99.90;;;;;;6284782;22;20065;-96
2022/01/13 13:03:37;;;;;;;138.70;35.72;;;6.40;99.90;;;;;;6312840;22;20023;-95
2022/01/13 13:06:21;;;;;;;125.95;34.13;;;6.40;99.90;;;;;;6310760;22;20018;-95
2022/01/13 13:08:48;;;;;;;153.20;38.92;;;6.40;99.90;;;;;;6338517;22;20280;-95
2022/01/13 13:11:14;;;;;;;112.35;32.13;;;6.40;99.90;;;;;;6312710;22;20015;-95
2022/01/13 13:13:42;;;;;;;136.35;38.13;;;6.40;99.90;;;;;;6287772;22;20329;-94
2022/01/13 13:16:08;;;;;;;136.98;39.10;;;6.40;99.90;;;;;;6291205;22;20015;-96
2022/01/13 13:18:35;;;;;;;104.10;34.63;;;6.50;99.90;;;;;;6318283;22;20380;-94
2022/01/13 13:21:03;;;;;;;139.32;39.25;;;6.50;99.90;;;;;;6294061;22;20026;-95
2022/01/13 13:23:33;;;;;;;152.48;40.03;;;6.50;99.90;;;;;;6291679;22;20088;-95
2022/01/13 13:26:22;;;;;;;153.98;41.80;;;6.50;99.90;;;;;;6291963;22;20023;-95
2022/01/13 13:28:51;;;;;;;131.48;38.70;;;6.50;99.90;;;;;;6288002;22;20027;-95
2022/01/13 13:31:18;;;;;;;139.05;39.35;;;6.50;99.90;;;;;;6288778;22;20023;-95
2022/01/13 13:34:00;;;;;;;136.85;40.20;;;6.50;99.90;;;;;;6314418;22;20019;-96
2022/01/13 13:36:33;;;;;;;141.93;40.28;;;6.60;99.90;;;;;;6342961;22;20054;-96
2022/01/13 13:39:07;;;;;;;154.15;38.72;;;6.60;99.90;;;;;;6291391;22;20066;-96
2022/01/13 13:41:35;;;;;;;135.73;38.08;;;6.60;99.90;;;;;;6316392;22;20318;-95
2022/01/13 13:44:02;;;;;;;143.07;41.45;;;6.60;99.90;;;;;;6315269;22;20023;-96